createdAt,value
2023-01-17T00:02:25.601Z,88.38
2023-01-17T00:04:52.327Z,88.30
2023-01-17T00:07:21.487Z,88.48
2023-01-17T00:09:48.247Z,88.40
2023-01-17T00:12:14.938Z,88.74
2023-01-17T00:14:43.002Z,89.13
2023-01-17T00:17:11.442Z,88.84
2023-01-17T00:19:38.221Z,88.75
2023-01-17T00:22:09.712Z,88.72
2023-01-17T00:24:36.351Z,88.92
2023-01-17T00:27:03.029Z,88.89
2023-01-17T00:29:29.668Z,89.32
2023-01-17T00:31:57.698Z,89.45
2023-01-17T00:34:24.374Z,89.09
2023-01-17T00:36:51.058Z,88.98
2023-01-17T00:39:17.775Z,88.85
2023-01-17T00:41:44.477Z,88.47
2023-01-17T00:44:11.155Z,89.00
2023-01-17T00:46:37.879Z,89.41
2023-01-17T00:49:06.321Z,89.26
2023-01-17T00:51:34.797Z,89.18
2023-01-17T00:54:01.801Z,88.85
2023-01-17T00:56:28.629Z,88.68
2023-01-17T00:58:55.272Z,89.04
2023-01-17T01:01:22.091Z,89.16
2023-01-17T01:03:48.879Z,88.80
2023-01-17T01:06:16.902Z,88.43
2023-01-17T01:08:43.555Z,88.03
2023-01-17T01:11:13.068Z,88.19
2023-01-17T01:13:39.879Z,88.19
2023-01-17T01:16:06.967Z,88.29
2023-01-17T01:18:33.671Z,88.27
2023-01-17T01:21:02.951Z,87.79
2023-01-17T01:23:31.032Z,87.80
2023-01-17T01:25:57.727Z,88.05
2023-01-17T01:28:26.260Z,87.63
2023-01-17T01:30:52.969Z,87.24
2023-01-17T01:33:19.841Z,87.18
2023-01-17T01:35:48.353Z,87.71
2023-01-17T01:38:15.563Z,88.40
2023-01-17T01:40:49.917Z,88.65
2023-01-17T01:43:19.276Z,88.62
2023-01-17T01:45:49.561Z,88.21
2023-01-17T01:48:35.802Z,88.58
2023-01-17T01:51:06.208Z,88.67
2023-01-17T01:53:40.151Z,88.35
2023-01-17T01:56:12.101Z,88.56
2023-01-17T01:58:40.316Z,88.85
2023-01-17T02:01:08.050Z,88.40
2023-01-17T02:03:38.028Z,88.43
2023-01-17T02:06:19.266Z,88.66
2023-01-17T02:08:46.196Z,88.84
2023-01-17T02:11:14.334Z,89.17
2023-01-17T02:13:41.720Z,88.62
2023-01-17T02:16:21.257Z,88.39
2023-01-17T02:18:56.317Z,87.96
2023-01-17T02:21:25.898Z,87.60
2023-01-17T02:24:30.223Z,87.44
2023-01-17T02:27:04.336Z,87.04
2023-01-17T02:30:18.780Z,87.45
2023-01-17T02:32:57.003Z,88.13
2023-01-17T02:35:33.398Z,88.82
2023-01-17T02:38:12.700Z,88.78
2023-01-17T02:40:45.382Z,88.51
2023-01-17T02:43:15.095Z,89.18
2023-01-17T02:45:42.264Z,89.42
2023-01-17T02:48:14.049Z,89.36
2023-01-17T02:51:00.215Z,89.87
2023-01-17T02:53:40.100Z,89.99
2023-01-17T02:56:18.635Z,89.52
2023-01-17T02:59:03.456Z,89.42
2023-01-17T03:01:40.154Z,89.13
2023-01-17T03:04:14.711Z,88.65
2023-01-17T03:06:46.217Z,88.30
2023-01-17T03:09:15.873Z,88.01
2023-01-17T03:11:43.062Z,87.87
2023-01-17T03:14:10.016Z,87.90
2023-01-17T03:16:36.817Z,88.01
2023-01-17T03:19:03.515Z,87.87
2023-01-17T03:21:31.739Z,88.09
2023-01-17T03:23:58.596Z,88.12
2023-01-17T03:26:25.327Z,88.21
2023-01-17T03:28:52.018Z,87.92
2023-01-17T03:31:18.994Z,87.79
2023-01-17T03:33:46.051Z,87.82
2023-01-17T03:36:12.780Z,87.65
2023-01-17T03:38:40.962Z,87.09
2023-01-17T03:41:07.803Z,87.12
2023-01-17T03:43:34.471Z,86.67
2023-01-17T03:46:05.840Z,86.52
2023-01-17T03:48:32.908Z,86.17
2023-01-17T03:51:00.110Z,86.15
2023-01-17T03:53:26.820Z,86.05
2023-01-17T03:55:55.029Z,86.01
2023-01-17T03:58:21.774Z,85.75
2023-01-17T04:00:48.491Z,85.38
2023-01-17T04:03:15.198Z,84.92
2023-01-17T04:05:41.872Z,84.54
2023-01-17T04:08:08.561Z,84.42
2023-01-17T04:10:35.484Z,84.15
2023-01-17T04:13:03.726Z,83.76
2023-01-17T04:15:30.514Z,84.31
2023-01-17T04:17:57.964Z,85.09
2023-01-17T04:20:31.776Z,85.26
2023-01-17T04:22:58.500Z,85.53
2023-01-17T04:25:25.675Z,85.81
2023-01-17T04:27:52.816Z,86.03
2023-01-17T04:30:21.089Z,85.83
2023-01-17T04:32:47.779Z,85.23
2023-01-17T04:35:14.697Z,84.71
2023-01-17T04:37:42.215Z,84.21
2023-01-17T04:40:10.669Z,83.19
2023-01-17T04:42:37.901Z,82.45
2023-01-17T04:45:05.483Z,81.85
2023-01-17T04:47:34.678Z,82.32
2023-01-17T04:50:01.403Z,82.84
2023-01-17T04:52:28.136Z,83.28
2023-01-17T04:54:54.907Z,83.16
2023-01-17T04:57:21.616Z,83.61
2023-01-17T04:59:48.337Z,83.48
2023-01-17T05:02:15.143Z,83.33
2023-01-17T05:04:43.198Z,83.62
2023-01-17T05:07:09.992Z,83.67
2023-01-17T05:09:37.010Z,84.02
2023-01-17T05:12:04.077Z,83.75
2023-01-17T05:14:30.792Z,82.93
2023-01-17T05:16:58.319Z,82.30
2023-01-17T05:19:26.889Z,81.72
2023-01-17T05:21:54.978Z,81.11
2023-01-17T05:24:21.795Z,80.87
2023-01-17T05:26:50.299Z,80.93
2023-01-17T05:29:17.148Z,81.26
2023-01-17T05:31:43.885Z,81.45
2023-01-17T05:34:12.685Z,82.20
2023-01-17T05:36:39.389Z,82.55
2023-01-17T05:39:07.765Z,83.20
2023-01-17T05:41:34.462Z,84.01
2023-01-17T05:44:01.152Z,84.94
2023-01-17T05:46:27.832Z,85.49
2023-01-17T05:48:54.554Z,85.86
2023-01-17T05:51:21.280Z,86.01
2023-01-17T05:53:47.976Z,86.37
2023-01-17T05:56:16.108Z,86.84
2023-01-17T05:58:42.750Z,86.74
2023-01-17T06:01:09.524Z,86.92
2023-01-17T06:03:36.269Z,87.09
2023-01-17T06:06:03.056Z,87.98
2023-01-17T06:08:29.818Z,88.32
2023-01-17T06:10:58.552Z,88.27
2023-01-17T06:13:26.605Z,88.66
2023-01-17T06:15:56.214Z,88.74
2023-01-17T06:18:25.791Z,88.57
2023-01-17T06:20:53.061Z,88.46
2023-01-17T06:23:19.884Z,88.83
2023-01-17T06:25:48.089Z,89.28
2023-01-17T06:28:17.184Z,89.18
2023-01-17T06:30:45.922Z,89.15
2023-01-17T06:33:13.449Z,88.88
2023-01-17T06:35:40.590Z,88.43
2023-01-17T06:38:09.155Z,87.95
2023-01-17T06:40:36.025Z,87.76
2023-01-17T06:43:03.868Z,88.05
2023-01-17T06:45:31.755Z,88.12
2023-01-17T06:48:00.173Z,88.04
2023-01-17T06:50:27.563Z,88.03
2023-01-17T06:52:56.040Z,87.80
2023-01-17T06:55:22.946Z,86.71
2023-01-17T06:57:49.651Z,86.65
2023-01-17T07:00:19.163Z,86.70
2023-01-17T07:02:48.966Z,87.25
2023-01-17T07:05:17.161Z,87.29
2023-01-17T07:07:44.429Z,87.18
2023-01-17T07:10:13.018Z,87.33
2023-01-17T07:12:39.769Z,87.54
2023-01-17T07:15:08.138Z,86.79
2023-01-17T07:17:35.463Z,85.61
2023-01-17T07:20:05.525Z,85.05
2023-01-17T07:22:33.640Z,84.92
2023-01-17T07:25:00.407Z,85.51
2023-01-17T07:27:29.166Z,85.71
2023-01-17T07:29:55.864Z,85.70
2023-01-17T07:32:22.707Z,87.08
2023-01-17T07:34:49.433Z,87.95
2023-01-17T07:37:16.197Z,87.65
2023-01-17T07:39:47.437Z,87.11
2023-01-17T07:42:14.232Z,86.88
2023-01-17T07:44:41.367Z,86.39
2023-01-17T07:47:08.156Z,85.77
2023-01-17T07:49:34.911Z,85.85
2023-01-17T07:52:01.622Z,85.82
2023-01-17T07:54:28.376Z,85.85
2023-01-17T07:56:56.533Z,86.28
2023-01-17T07:59:23.255Z,86.34
2023-01-17T08:01:50.057Z,86.35
2023-01-17T08:04:16.836Z,86.31
2023-01-17T08:06:44.863Z,86.52
2023-01-17T08:09:11.524Z,87.37
2023-01-17T08:11:38.172Z,88.00
2023-01-17T08:14:06.222Z,88.23
2023-01-17T08:16:32.977Z,88.56
2023-01-17T08:18:59.725Z,88.56
2023-01-17T08:21:26.430Z,87.87
2023-01-17T08:23:57.759Z,87.43
2023-01-17T08:26:24.545Z,87.89
2023-01-17T08:28:55.524Z,88.29
2023-01-17T08:31:24.127Z,88.69
2023-01-17T08:33:50.873Z,88.79
2023-01-17T08:36:17.602Z,88.44
2023-01-17T08:38:44.534Z,88.81
2023-01-17T08:41:11.258Z,89.11
2023-01-17T08:43:37.944Z,89.63
2023-01-17T08:46:04.831Z,89.79
2023-01-17T08:48:32.962Z,90.10
2023-01-17T08:51:00.899Z,89.73
2023-01-17T08:53:27.654Z,89.19
2023-01-17T08:55:58.275Z,88.89
2023-01-17T08:58:25.071Z,89.14
2023-01-17T09:00:51.937Z,89.21
2023-01-17T09:03:18.651Z,88.99
2023-01-17T09:05:46.766Z,89.14
2023-01-17T09:08:13.450Z,88.54
2023-01-17T09:10:40.196Z,88.21
2023-01-17T09:13:07.047Z,88.23
2023-01-17T09:15:33.718Z,87.79
2023-01-17T09:18:00.413Z,88.11
2023-01-17T09:20:27.175Z,88.52
2023-01-17T09:22:55.277Z,88.46
2023-01-17T09:25:21.971Z,88.20
2023-01-17T09:27:50.330Z,88.42
2023-01-17T09:30:17.711Z,88.24
2023-01-17T09:32:44.451Z,88.14
2023-01-17T09:35:11.107Z,88.52
2023-01-17T09:37:37.794Z,88.42
2023-01-17T09:40:07.592Z,88.79
2023-01-17T09:42:39.635Z,89.06
2023-01-17T09:45:16.742Z,88.77
2023-01-17T09:47:46.660Z,88.53
2023-01-17T09:50:26.533Z,88.77
2023-01-17T09:52:56.045Z,88.52
2023-01-17T09:55:24.329Z,88.52
2023-01-17T09:58:00.227Z,89.57
2023-01-17T10:00:46.804Z,89.29
2023-01-17T10:03:45.342Z,88.67
2023-01-17T10:06:22.221Z,88.31
2023-01-17T10:09:14.880Z,87.28
2023-01-17T10:11:55.367Z,87.10
2023-01-17T10:14:42.365Z,86.86
2023-01-17T10:17:19.217Z,87.05
2023-01-17T10:20:02.006Z,86.96
2023-01-17T10:22:44.760Z,87.50
2023-01-17T10:25:23.098Z,88.10
2023-01-17T10:27:57.584Z,87.90
2023-01-17T10:30:30.141Z,87.79
2023-01-17T10:33:02.209Z,88.02
2023-01-17T10:35:35.832Z,88.22
2023-01-17T10:38:10.120Z,88.18
2023-01-17T10:40:42.648Z,88.06
2023-01-17T10:43:18.273Z,87.74
2023-01-17T10:45:52.884Z,87.17
2023-01-17T10:48:35.819Z,87.34
2023-01-17T10:51:13.877Z,87.14
2023-01-17T10:53:54.748Z,86.84
2023-01-17T10:56:26.238Z,87.15
2023-01-17T10:59:07.612Z,87.66
2023-01-17T11:01:34.820Z,86.95
2023-01-17T11:04:02.229Z,87.04
2023-01-17T11:06:28.926Z,87.07
2023-01-17T11:08:56.944Z,86.74
2023-01-17T11:11:25.939Z,86.53
2023-01-17T11:13:54.607Z,86.11
2023-01-17T11:16:26.722Z,85.89
2023-01-17T11:19:11.962Z,85.68
2023-01-17T11:21:40.218Z,85.46
2023-01-17T11:24:15.405Z,85.82
2023-01-17T11:26:48.285Z,86.07
2023-01-17T11:29:23.233Z,86.58
2023-01-17T11:31:51.293Z,86.79
2023-01-17T11:34:23.417Z,86.38
2023-01-17T11:37:16.990Z,86.27
2023-01-17T11:39:44.460Z,86.17
2023-01-17T11:42:32.893Z,86.28
2023-01-17T11:45:24.151Z,86.65
2023-01-17T11:48:09.521Z,86.63
2023-01-17T11:50:37.795Z,86.94
2023-01-17T11:53:18.739Z,86.78
2023-01-17T11:56:04.466Z,86.59
2023-01-17T11:58:33.872Z,86.78
2023-01-17T12:01:16.476Z,86.81
2023-01-17T12:04:01.163Z,86.21
2023-01-17T12:06:56.024Z,85.01
2023-01-17T12:09:32.815Z,83.86
2023-01-17T12:12:08.965Z,83.55
2023-01-17T12:14:45.328Z,83.68
2023-01-17T12:17:28.048Z,83.43
2023-01-17T12:19:59.991Z,82.59
2023-01-17T12:22:52.816Z,82.32
2023-01-17T12:25:28.876Z,82.83
2023-01-17T12:28:17.986Z,82.95
2023-01-17T12:31:03.547Z,83.03
2023-01-17T12:33:41.932Z,82.80
2023-01-17T12:36:18.922Z,83.76
2023-01-17T12:38:48.101Z,82.90
2023-01-17T12:41:20.664Z,83.10
2023-01-17T12:43:47.959Z,83.49
2023-01-17T12:46:18.078Z,83.22
2023-01-17T12:48:45.511Z,82.25
2023-01-17T12:51:19.530Z,81.91
2023-01-17T12:53:55.866Z,82.37
2023-01-17T12:56:28.344Z,82.70
2023-01-17T12:59:05.283Z,82.89
2023-01-17T13:01:34.729Z,83.55
2023-01-17T13:04:21.071Z,84.73
2023-01-17T13:07:04.427Z,84.75
2023-01-17T13:09:38.297Z,84.54
2023-01-17T13:12:10.465Z,84.70
2023-01-17T13:14:37.191Z,84.02
2023-01-17T13:17:18.988Z,83.47
2023-01-17T13:19:51.734Z,82.87
2023-01-17T13:22:22.144Z,82.67
2023-01-17T13:24:58.887Z,82.32
2023-01-17T13:28:13.390Z,82.59
2023-01-17T13:31:04.705Z,82.75
2023-01-17T13:33:43.608Z,82.30
2023-01-17T13:36:28.570Z,82.22
2023-01-17T13:39:25.006Z,82.59
2023-01-17T13:41:53.807Z,82.34
2023-01-17T13:44:23.833Z,82.28
2023-01-17T13:46:59.549Z,82.30
2023-01-17T13:49:44.791Z,82.11
2023-01-17T13:52:33.096Z,82.72
2023-01-17T13:55:03.438Z,82.91
2023-01-17T13:57:39.141Z,82.97
2023-01-17T14:00:48.572Z,84.21
2023-01-17T14:03:35.390Z,84.77
2023-01-17T14:06:02.088Z,85.19
2023-01-17T14:08:29.555Z,85.65
2023-01-17T14:11:06.913Z,85.02
2023-01-17T14:13:37.527Z,84.15
2023-01-17T14:16:24.314Z,83.08
2023-01-17T14:18:52.844Z,82.25
2023-01-17T14:21:22.764Z,81.77
2023-01-17T14:24:01.591Z,82.07
2023-01-17T14:26:57.643Z,82.50
2023-01-17T14:29:46.157Z,83.14
2023-01-17T14:32:15.272Z,84.12
2023-01-17T14:34:44.421Z,84.38
2023-01-17T14:37:18.372Z,84.56
2023-01-17T14:39:46.247Z,84.77
2023-01-17T14:42:18.315Z,84.74
2023-01-17T14:44:47.763Z,85.61
2023-01-17T14:47:16.642Z,85.58
2023-01-17T14:49:43.963Z,86.44
2023-01-17T14:52:16.306Z,86.07
2023-01-17T14:54:50.452Z,85.55
2023-01-17T14:57:27.388Z,85.15
2023-01-17T15:00:09.698Z,84.66
2023-01-17T15:02:41.222Z,84.95
2023-01-17T15:05:14.484Z,85.14
2023-01-17T15:07:43.104Z,85.80
2023-01-17T15:10:15.880Z,86.65
2023-01-17T15:12:44.378Z,87.44
2023-01-17T15:15:27.852Z,87.31
2023-01-17T15:18:08.822Z,86.69
2023-01-17T15:20:37.730Z,86.61
2023-01-17T15:23:04.818Z,86.43
2023-01-17T15:25:31.701Z,86.34
2023-01-17T15:28:00.286Z,85.99
2023-01-17T15:30:30.031Z,85.77
2023-01-17T15:32:56.876Z,85.67
2023-01-17T15:35:23.759Z,86.01
2023-01-17T15:37:54.464Z,86.36
2023-01-17T15:40:23.026Z,86.93
2023-01-17T15:42:53.043Z,86.97
2023-01-17T15:45:26.961Z,86.72
2023-01-17T15:47:55.446Z,86.71
2023-01-17T15:50:30.964Z,86.31
2023-01-17T15:52:59.541Z,86.51
2023-01-17T15:55:32.413Z,86.89
2023-01-17T15:58:03.303Z,86.97
2023-01-17T16:00:37.609Z,87.37
2023-01-17T16:03:21.809Z,87.16
2023-01-17T16:05:49.563Z,87.36
2023-01-17T16:08:33.944Z,87.66
2023-01-17T16:11:02.731Z,87.98
2023-01-17T16:13:31.105Z,87.79
2023-01-17T16:16:14.045Z,87.76
2023-01-17T16:18:41.076Z,87.73
2023-01-17T16:21:19.753Z,87.94
2023-01-17T16:23:46.780Z,88.02
2023-01-17T16:26:13.416Z,88.28
2023-01-17T16:28:40.110Z,88.98
2023-01-17T16:31:06.979Z,89.50
2023-01-17T16:33:35.199Z,89.98
2023-01-17T16:36:01.947Z,90.55
2023-01-17T16:38:28.731Z,90.70
2023-01-17T16:40:55.405Z,91.07
2023-01-17T16:43:22.170Z,91.43
2023-01-17T16:45:50.784Z,91.51
2023-01-17T16:48:19.373Z,91.69
2023-01-17T16:50:48.868Z,91.32
2023-01-17T16:53:15.810Z,91.19
2023-01-17T16:55:43.444Z,91.54
2023-01-17T16:58:10.698Z,91.63
2023-01-17T17:00:37.453Z,91.89
2023-01-17T17:03:04.173Z,91.52
2023-01-17T17:05:30.867Z,91.33
2023-01-17T17:07:59.151Z,91.29
2023-01-17T17:10:26.136Z,90.84
2023-01-17T17:12:52.903Z,90.79
2023-01-17T17:15:19.694Z,90.78
2023-01-17T17:17:46.363Z,90.94
2023-01-17T17:20:15.192Z,91.12
2023-01-17T17:22:43.531Z,91.16
2023-01-17T17:25:12.178Z,91.08
2023-01-17T17:27:39.254Z,91.44
2023-01-17T17:30:07.159Z,91.57
2023-01-17T17:32:33.883Z,91.82
2023-01-17T17:35:00.614Z,91.87
2023-01-17T17:37:27.339Z,91.72
2023-01-17T17:39:54.156Z,91.90
2023-01-17T17:42:22.240Z,91.99
2023-01-17T17:44:49.131Z,92.09
2023-01-17T17:47:15.812Z,92.31
2023-01-17T17:49:42.551Z,92.23
2023-01-17T17:52:09.514Z,92.15
2023-01-17T17:54:36.568Z,92.14
2023-01-17T17:57:03.357Z,92.34
2023-01-17T17:59:31.436Z,92.51
2023-01-17T18:01:58.148Z,92.55
2023-01-17T18:04:25.157Z,92.58
2023-01-17T18:06:55.911Z,92.16
2023-01-17T18:09:22.613Z,92.46
2023-01-17T18:11:49.353Z,93.02
2023-01-17T18:14:16.203Z,93.39
2023-01-17T18:16:44.881Z,93.42
2023-01-17T18:19:14.059Z,93.89
2023-01-17T18:21:40.906Z,94.03
2023-01-17T18:24:10.592Z,94.36
2023-01-17T18:26:38.951Z,94.52
2023-01-17T18:29:07.663Z,94.52
2023-01-17T18:31:34.820Z,94.20
2023-01-17T18:34:05.491Z,94.37
2023-01-17T18:36:32.462Z,94.43
2023-01-17T18:38:59.250Z,94.68
2023-01-17T18:41:27.596Z,94.64
2023-01-17T18:43:54.983Z,94.62
2023-01-17T18:46:22.007Z,94.74
2023-01-17T18:48:49.112Z,94.94
2023-01-17T18:51:19.289Z,95.25
2023-01-17T18:53:46.491Z,95.26
2023-01-17T18:56:15.861Z,95.13
2023-01-17T18:58:45.140Z,95.20
2023-01-17T19:01:14.145Z,95.18
2023-01-17T19:03:42.887Z,95.28
2023-01-17T19:06:11.908Z,95.50
2023-01-17T19:08:41.413Z,95.45
2023-01-17T19:11:09.360Z,95.41
2023-01-17T19:13:37.767Z,95.24
2023-01-17T19:16:07.520Z,94.86
2023-01-17T19:18:35.701Z,93.86
2023-01-17T19:21:06.713Z,93.62
2023-01-17T19:23:34.164Z,93.83
2023-01-17T19:26:02.297Z,93.50
2023-01-17T19:28:34.160Z,93.48
2023-01-17T19:31:03.458Z,93.80
2023-01-17T19:33:30.138Z,93.78
2023-01-17T19:35:58.930Z,94.35
2023-01-17T19:38:25.673Z,95.07
2023-01-17T19:40:52.667Z,94.75
2023-01-17T19:43:20.701Z,94.08
2023-01-17T19:45:55.789Z,93.66
2023-01-17T19:48:22.589Z,93.56
2023-01-17T19:50:49.243Z,93.94
2023-01-17T19:53:16.355Z,94.00
2023-01-17T19:55:44.431Z,93.83
2023-01-17T19:58:13.069Z,94.66
2023-01-17T20:00:46.444Z,94.30
2023-01-17T20:03:13.561Z,93.80
2023-01-17T20:05:40.281Z,93.89
2023-01-17T20:08:07.006Z,94.00
2023-01-17T20:10:33.666Z,93.71
2023-01-17T20:13:00.381Z,93.48
2023-01-17T20:15:27.391Z,93.89
2023-01-17T20:17:55.792Z,93.42
2023-01-17T20:20:22.642Z,93.40
2023-01-17T20:22:49.394Z,93.13
2023-01-17T20:25:16.247Z,92.97
2023-01-17T20:27:42.952Z,93.17
2023-01-17T20:30:19.837Z,93.33
2023-01-17T20:32:49.876Z,93.58
2023-01-17T20:35:18.024Z,93.60
2023-01-17T20:37:44.706Z,93.55
2023-01-17T20:40:12.573Z,93.83
2023-01-17T20:42:39.302Z,93.71
2023-01-17T20:45:06.983Z,94.11
2023-01-17T20:47:33.642Z,94.00
2023-01-17T20:50:00.398Z,94.30
2023-01-17T20:52:28.620Z,93.99
2023-01-17T20:54:55.420Z,94.07
2023-01-17T20:57:22.101Z,93.93
2023-01-17T20:59:48.919Z,93.70
2023-01-17T21:02:18.885Z,94.01
2023-01-17T21:04:45.671Z,94.17
2023-01-17T21:07:12.343Z,94.05
2023-01-17T21:09:40.488Z,93.20
2023-01-17T21:12:07.223Z,93.22
2023-01-17T21:14:33.988Z,93.18
2023-01-17T21:17:00.733Z,93.51
2023-01-17T21:19:27.586Z,93.71
2023-01-17T21:21:54.242Z,93.64
2023-01-17T21:24:21.019Z,93.42
2023-01-17T21:26:49.136Z,93.33
2023-01-17T21:29:15.785Z,93.26
2023-01-17T21:31:42.529Z,93.22
2023-01-17T21:34:10.782Z,93.28
2023-01-17T21:36:38.884Z,93.67
2023-01-17T21:39:10.193Z,93.95
2023-01-17T21:41:38.960Z,93.67
2023-01-17T21:44:11.459Z,93.86
2023-01-17T21:46:39.856Z,93.95
2023-01-17T21:49:07.917Z,94.01
2023-01-17T21:51:34.671Z,93.88
2023-01-17T21:54:01.422Z,94.22
2023-01-17T21:56:28.121Z,94.39
2023-01-17T21:58:57.176Z,94.24
2023-01-17T22:01:26.894Z,95.05
2023-01-17T22:03:56.000Z,94.69
2023-01-17T22:06:24.968Z,95.06
2023-01-17T22:08:51.724Z,94.64
2023-01-17T22:11:21.218Z,94.51
2023-01-17T22:13:48.189Z,94.56
2023-01-17T22:16:17.370Z,94.36
2023-01-17T22:18:48.535Z,94.58
2023-01-17T22:21:16.662Z,94.67
2023-01-17T22:23:45.851Z,94.31
2023-01-17T22:26:12.582Z,94.76
2023-01-17T22:28:40.041Z,94.32
2023-01-17T22:31:09.211Z,93.58
2023-01-17T22:33:36.454Z,93.13
2023-01-17T22:36:05.152Z,92.92
2023-01-17T22:38:32.188Z,93.45
2023-01-17T22:41:03.607Z,93.46
2023-01-17T22:43:30.230Z,92.74
2023-01-17T22:45:58.912Z,93.33
2023-01-17T22:48:25.712Z,93.98
2023-01-17T22:50:57.146Z,95.14
2023-01-17T22:53:25.355Z,94.83
2023-01-17T22:55:59.247Z,94.66
2023-01-17T22:58:26.019Z,94.57
2023-01-17T23:00:52.948Z,94.68
2023-01-17T23:03:19.760Z,94.86
2023-01-17T23:05:46.544Z,95.24
2023-01-17T23:08:13.242Z,95.71
2023-01-17T23:10:43.027Z,95.49
2023-01-17T23:13:09.786Z,95.25
2023-01-17T23:15:37.860Z,95.14
2023-01-17T23:18:04.730Z,94.98
2023-01-17T23:20:31.539Z,95.07
2023-01-17T23:22:58.573Z,94.83
2023-01-17T23:25:25.585Z,94.69
2023-01-17T23:27:53.739Z,94.48
2023-01-17T23:30:22.630Z,94.51
2023-01-17T23:32:51.432Z,94.46
2023-01-17T23:35:20.384Z,94.56
2023-01-17T23:37:47.583Z,95.03
2023-01-17T23:40:14.626Z,95.34
2023-01-17T23:42:41.783Z,97.60
2023-01-17T23:45:10.626Z,97.00
2023-01-17T23:47:37.299Z,96.14
2023-01-17T23:50:04.602Z,96.76
2023-01-17T23:52:31.253Z,97.98
2023-01-17T23:54:57.934Z,98.15
2023-01-17T23:57:24.760Z,98.22
2023-01-17T23:59:51.412Z,98.49
